Time;durP1;ratioP1;P1;durP2;ratioP2;P2;SDS_P1;SDS_P2;PMS_P1;PMS_P2;Temp;Humidity;BMP_temperature;BMP_pressure;BME280_temperature;BME280_humidity;BME280_pressure;Samples;Min_cycle;Max_cycle;Signal;HPM_P1;HPM_P2
2024/03/04 11:03:43;;;;;;;10.80;6.00;;;;;;;13.73;77.07;98372.25;102694;1288;635725;-69
2024/03/04 11:06:19;;;;;;;11.40;6.10;;;;;;;13.86;77.38;98365.32;104837;1264;94323;-68
2024/03/04 11:08:52;;;;;;;11.40;6.10;;;;;;;14.01;77.05;98366.59;104911;1264;94313;-69
2024/03/04 11:11:29;;;;;;;7.40;5.20;;;;;;;14.09;77.21;98371.27;104676;1264;106248;-68
2024/03/04 11:14:09;;;;;;;10.10;5.40;;;;;;;14.16;76.59;98376.13;105481;1258;94297;-70
2024/03/04 11:16:45;;;;;;;7.70;5.30;;;;;;;14.17;76.37;98370.69;98751;1251;9261851;-70
2024/03/04 11:19:46;;;;;;;8.50;5.00;;;;;;;14.16;76.47;98373.11;105672;1258;94232;-72
2024/03/04 11:22:16;;;;;;;8.80;5.40;;;;;;;14.14;76.20;98372.40;105719;1257;106962;-70
2024/03/04 11:24:48;;;;;;;9.70;6.20;;;;;;;14.11;76.16;98372.27;105798;1254;95486;-71
2024/03/04 11:27:18;;;;;;;;;;;;;;;14.16;76.03;98371.88;105782;1260;107618;-71
2024/03/04 11:29:47;;;;;;;7.30;4.70;;;;;;;14.24;76.22;98375.04;105745;1263;95173;-72
2024/03/04 11:32:22;;;;;;;8.10;5.40;;;;;;;14.27;75.69;98368.95;105611;1257;95179;-70
2024/03/04 11:35:09;;;;;;;12.70;5.90;;;;;;;14.29;75.64;98368.38;105597;1258;108542;-69
2024/03/04 11:37:52;;;;;;;10.00;5.80;;;;;;;14.30;75.35;98373.33;105499;1251;95247;-69
2024/03/04 11:40:24;;;;;;;9.80;6.10;;;;;;;14.30;75.10;98376.02;105510;1261;107629;-73
2024/03/04 11:42:52;;;;;;;6.90;5.20;;;;;;;14.24;74.90;98372.45;105579;1255;95313;-70
2024/03/04 11:45:29;;;;;;;8.00;5.00;;;;;;;14.15;74.51;98372.80;105400;1257;95196;-73
2024/03/04 11:47:57;;;;;;;8.70;5.40;;;;;;;14.09;74.52;98374.70;105621;1256;108102;-69
2024/03/04 11:50:40;;;;;;;8.90;5.00;;;;;;;14.06;74.56;98375.33;105795;1254;95447;-69
2024/03/04 11:53:29;;;;;;;7.90;5.00;;;;;;;14.08;74.15;98372.98;105505;1264;107628;-70
2024/03/04 11:55:58;;;;;;;9.70;5.30;;;;;;;14.05;74.06;98368.10;105630;1255;95244;-71
2024/03/04 11:58:26;;;;;;;9.90;5.20;;;;;;;13.99;73.87;98367.85;105744;1255;95246;-70
2024/03/04 12:00:56;;;;;;;15.30;6.10;;;;;;;13.92;73.65;98365.50;105791;1254;108555;-69
2024/03/04 12:03:50;;;;;;;10.20;6.20;;;;;;;13.85;73.64;98359.20;105394;1264;95348;-70
2024/03/04 12:06:18;;;;;;;10.50;6.10;;;;;;;13.81;73.58;98359.75;105624;1257;107622;-69
2024/03/04 12:08:46;;;;;;;8.10;4.90;;;;;;;13.87;73.81;98355.08;105749;1265;95348;-69
2024/03/04 12:11:34;;;;;;;8.70;5.50;;;;;;;13.90;73.42;98353.92;105433;1257;95277;-73
2024/03/04 12:14:04;;;;;;;10.20;4.70;;;;;;;13.92;73.39;98347.60;105625;1254;108679;-70
2024/03/04 12:16:33;;;;;;;6.70;4.50;;;;;;;13.95;73.28;98343.27;105912;1258;95516;-70
2024/03/04 12:19:01;;;;;;;6.20;4.50;;;;;;;13.96;73.39;98342.09;108819;1251;107589;-68
2024/03/04 12:21:29;;;;;;;7.80;4.30;;;;;;;13.97;73.16;98339.50;106204;1254;95206;-71
2024/03/04 12:23:57;;;;;;;10.20;6.00;;;;;;;13.99;73.04;98335.54;105962;1255;95158;-69
2024/03/04 12:26:25;;;;;;;9.40;5.90;;;;;;;13.96;72.90;98335.62;105394;1261;108592;-69
2024/03/04 12:29:10;;;;;;;9.00;5.60;;;;;;;13.92;72.84;98332.80;105699;1251;95515;-70
2024/03/04 12:31:38;;;;;;;8.00;5.80;;;;;;;13.93;72.91;98328.42;105514;1257;107266;-69
2024/03/04 12:34:06;;;;;;;9.30;6.20;;;;;;;13.94;72.65;98325.81;105576;1261;95260;-70
2024/03/04 12:36:34;;;;;;;9.90;6.00;;;;;;;13.94;72.60;98324.30;105231;1266;95167;-69
2024/03/04 12:39:11;;;;;;;9.80;6.10;;;;;;;13.92;72.38;98320.52;105840;1254;107749;-70
2024/03/04 12:41:40;;;;;;;10.40;5.60;;;;;;;13.89;72.18;98320.16;105501;1256;95907;-70
2024/03/04 12:44:07;;;;;;;9.80;5.80;;;;;;;13.88;72.35;98315.97;105484;1254;107640;-69
2024/03/04 12:46:36;;;;;;;10.90;6.40;;;;;;;13.90;72.13;98312.35;105476;1251;95265;-69
2024/03/04 12:49:04;;;;;;;10.00;6.20;;;;;;;13.91;72.05;98310.16;105742;1257;96223;-70
2024/03/04 12:51:35;;;;;;;11.60;7.30;;;;;;;13.91;72.13;98307.83;105698;1251;108545;-70
2024/03/04 12:54:04;;;;;;;9.70;6.70;;;;;;;13.93;72.02;98302.23;105502;1263;95239;-70
2024/03/04 12:56:32;;;;;;;9.50;6.10;;;;;;;13.91;71.80;98294.12;105745;1257;108211;-69
2024/03/04 12:59:01;;;;;;;10.90;5.80;;;;;;;13.91;71.98;98293.13;105728;1254;96155;-69
2024/03/04 13:01:31;;;;;;;10.50;5.90;;;;;;;13.95;71.75;98288.36;105630;1251;95171;-69
2024/03/04 13:04:03;;;;;;;11.70;5.60;;;;;;;13.97;71.68;98284.39;105887;1251;107029;-69
2024/03/04 13:06:31;;;;;;;;;;;;;;;14.01;71.60;98283.10;105575;1254;95272;-71
2024/03/04 13:08:59;;;;;;;8.30;5.20;;;;;;;14.08;71.57;98278.73;105368;1258;107626;-70
2024/03/04 13:11:27;;;;;;;8.50;5.50;;;;;;;14.17;71.35;98275.45;105691;1251;95157;-70
2024/03/04 13:13:55;;;;;;;10.10;6.10;;;;;;;14.22;71.30;98275.89;105834;1254;95240;-70
2024/03/04 13:16:23;;;;;;;9.20;5.60;;;;;;;14.24;71.33;98275.81;105544;1263;107685;-69
2024/03/04 13:18:51;;;;;;;11.10;5.40;;;;;;;14.28;70.99;98272.04;105740;1254;95279;-69
2024/03/04 13:21:19;;;;;;;10.20;4.90;;;;;;;14.32;70.92;98272.35;105541;1256;107592;-69
2024/03/04 13:23:48;;;;;;;7.90;5.10;;;;;;;14.37;70.96;98274.00;105853;1261;95190;-69
2024/03/04 13:26:16;;;;;;;9.90;5.00;;;;;;;14.41;70.86;98271.42;105676;1257;95249;-70
2024/03/04 13:28:44;;;;;;;7.60;4.90;;;;;;;14.42;70.69;98264.77;105556;1254;108529;-69
2024/03/04 13:31:11;;;;;;;8.90;4.80;;;;;;;14.42;70.70;98259.36;105841;1257;96264;-69
2024/03/04 13:33:39;;;;;;;7.50;4.10;;;;;;;14.46;70.54;98254.77;105698;1251;107652;-70
2024/03/04 13:36:07;;;;;;;7.90;4.60;;;;;;;14.47;70.41;98250.21;105722;1265;95255;-70
2024/03/04 13:38:35;;;;;;;7.70;4.40;;;;;;;14.50;70.39;98250.54;105543;1254;95313;-68
2024/03/04 13:41:04;;;;;;;7.30;4.60;;;;;;;14.52;69.92;98246.27;105790;1251;108536;-69
2024/03/04 13:43:32;;;;;;;9.80;4.30;;;;;;;14.54;69.85;98243.23;105905;1257;95609;-69
2024/03/04 13:46:00;;;;;;;8.20;4.40;;;;;;;14.53;69.95;98242.61;105735;1254;107339;-69
2024/03/04 13:48:27;;;;;;;6.80;5.00;;;;;;;14.54;69.72;98238.26;105827;1254;95229;-69
2024/03/04 13:50:55;;;;;;;9.10;4.90;;;;;;;14.53;69.43;98240.33;105756;1254;95739;-69
2024/03/04 13:53:23;;;;;;;6.30;4.10;;;;;;;14.53;69.30;98238.18;105441;1255;108532;-73
2024/03/04 13:55:51;;;;;;;6.10;4.10;;;;;;;14.56;69.39;98236.84;105481;1254;95195;-69
2024/03/04 13:58:19;;;;;;;8.60;5.10;;;;;;;14.56;69.05;98235.33;105877;1264;106595;-69
2024/03/04 14:00:47;;;;;;;8.50;5.90;;;;;;;14.54;69.04;98234.08;105768;1264;95252;-70
2024/03/04 14:03:15;;;;;;;9.30;5.30;;;;;;;14.55;68.88;98228.83;105581;1254;96469;-69
2024/03/04 14:05:44;;;;;;;7.90;4.80;;;;;;;14.54;68.74;98231.11;105817;1254;110037;-70
2024/03/04 14:08:12;;;;;;;8.10;4.40;;;;;;;14.55;68.77;98225.48;105761;1251;95628;-69
2024/03/04 14:10:40;;;;;;;7.90;5.00;;;;;;;14.55;68.74;98221.71;105400;1265;107519;-71
2024/03/04 14:13:09;;;;;;;8.90;4.70;;;;;;;14.55;68.35;98220.61;105710;1255;95278;-73
2024/03/04 14:15:37;;;;;;;13.20;10.00;;;;;;;14.53;68.34;98222.96;105532;1254;95229;-68
2024/03/04 14:18:05;;;;;;;15.10;7.30;;;;;;;14.52;68.23;98223.05;105720;1251;108502;-68
2024/03/04 14:20:32;;;;;;;7.40;5.40;;;;;;;14.52;68.15;98220.65;105751;1251;95912;-69
2024/03/04 14:23:01;;;;;;;11.80;4.90;;;;;;;14.49;68.18;98219.25;105786;1266;107633;-68
2024/03/04 14:25:29;;;;;;;13.20;6.30;;;;;;;14.49;68.06;98216.62;105598;1257;95240;-71
2024/03/04 14:27:57;;;;;;;11.40;5.70;;;;;;;14.46;67.96;98215.10;105463;1257;95232;-71
2024/03/04 14:30:25;;;;;;;8.80;5.80;;;;;;;14.45;67.79;98212.21;105732;1254;108555;-70
2024/03/04 14:32:52;;;;;;;8.50;5.10;;;;;;;14.45;67.76;98213.96;105750;1257;95243;-70
2024/03/04 14:35:20;;;;;;;11.50;6.50;;;;;;;14.47;67.70;98207.04;105656;1261;107585;-72
2024/03/04 14:37:51;;;;;;;9.80;5.40;;;;;;;14.46;67.64;98205.70;105646;1254;95254;-70
2024/03/04 14:40:19;;;;;;;7.60;4.80;;;;;;;14.42;67.41;98205.85;105485;1258;95278;-69
2024/03/04 14:42:47;;;;;;;8.60;4.40;;;;;;;14.38;67.22;98204.19;105654;1251;108177;-70
2024/03/04 14:45:15;;;;;;;6.60;4.80;;;;;;;14.36;67.23;98207.38;105630;1256;95317;-69
2024/03/04 14:47:43;;;;;;;8.30;4.60;;;;;;;14.33;67.09;98202.52;105452;1251;107203;-71
2024/03/04 14:50:11;;;;;;;7.00;4.70;;;;;;;14.29;67.00;98210.06;105738;1254;95231;-69
2024/03/04 14:52:39;;;;;;;7.70;4.30;;;;;;;14.25;66.67;98209.44;105393;1255;95209;-70
2024/03/04 14:55:07;;;;;;;7.70;4.20;;;;;;;14.19;66.87;98209.54;105413;1258;108538;-69
2024/03/04 14:57:35;;;;;;;9.20;4.50;;;;;;;14.13;66.61;98210.28;105436;1257;95449;-70
2024/03/04 15:00:10;;;;;;;7.90;5.00;;;;;;;14.07;66.53;98209.98;105567;1251;107064;-69
2024/03/04 15:02:39;;;;;;;7.80;5.30;;;;;;;14.02;66.37;98210.31;105600;1251;95221;-69
2024/03/04 15:05:08;;;;;;;8.80;4.40;;;;;;;13.97;66.38;98205.98;105899;1251;95277;-71
2024/03/04 15:07:46;;;;;;;6.40;4.50;;;;;;;13.93;66.37;98206.70;105650;1257;109948;-70
2024/03/04 15:10:14;;;;;;;6.40;4.10;;;;;;;13.91;66.31;98206.23;105708;1257;95320;-70
2024/03/04 15:12:44;;;;;;;8.50;4.20;;;;;;;13.89;65.96;98205.49;105828;1254;107754;-78
2024/03/04 15:15:17;;;;;;;15.90;9.20;;;;;;;13.86;66.14;98206.55;105778;1252;97592;-80
2024/03/04 15:17:46;;;;;;;14.20;9.10;;;;;;;13.83;66.02;98210.75;105723;1257;97534;-69
2024/03/04 15:20:18;;;;;;;133.60;94.10;;;;;;;13.78;65.79;98210.85;105805;1254;109523;-69
2024/03/04 15:22:46;;;;;;;152.30;86.60;;;;;;;13.76;65.96;98215.17;105908;1251;97282;-69
2024/03/04 15:25:15;;;;;;;264.20;127.70;;;;;;;13.73;65.92;98212.06;105752;1254;107605;-70
2024/03/04 15:27:46;;;;;;;350.80;149.10;;;;;;;13.69;65.93;98215.67;105548;1251;96696;-69
2024/03/04 15:30:14;;;;;;;246.80;114.30;;;;;;;13.66;65.71;98216.71;105479;1254;96593;-70
2024/03/04 15:32:45;;;;;;;80.10;35.60;;;;;;;13.65;65.73;98213.55;105673;1251;110525;-70
2024/03/04 15:35:14;;;;;;;40.80;19.10;;;;;;;13.63;65.72;98215.79;105941;1254;96586;-68
2024/03/04 15:37:45;;;;;;;34.30;16.40;;;;;;;13.60;65.59;98215.74;105856;1251;107584;-74
2024/03/04 15:40:13;;;;;;;45.10;20.30;;;;;;;13.56;65.46;98217.18;105848;1251;97545;-75
2024/03/04 15:42:41;;;;;;;66.60;30.00;;;;;;;13.53;65.42;98218.30;105598;1254;97775;-74
2024/03/04 15:45:11;;;;;;;32.20;14.30;;;;;;;13.50;65.40;98218.13;105661;1252;109343;-73
2024/03/04 15:47:39;;;;;;;25.50;12.40;;;;;;;13.46;65.19;98214.88;105576;1254;96580;-73
2024/03/04 15:50:19;;;;;;;19.20;9.20;;;;;;;13.43;65.21;98221.10;105643;1251;107663;-74
2024/03/04 15:54:16;;;;;;;14.00;8.00;;;;;;;13.37;65.07;98220.06;105245;1258;96670;-74
2024/03/04 15:57:04;;;;;;;20.00;9.30;;;;;;;13.30;65.07;98216.81;104924;1273;96615;-71
2024/03/04 15:59:31;;;;;;;13.30;7.00;;;;;;;13.25;65.06;98217.42;105802;1251;108674;-73
2024/03/04 16:01:59;;;;;;;13.20;7.00;;;;;;;13.20;65.04;98216.00;105940;1254;96513;-70
2024/03/04 16:04:29;;;;;;;11.90;6.50;;;;;;;13.14;65.05;98214.13;105488;1257;107319;-72
2024/03/04 16:07:02;;;;;;;13.10;6.50;;;;;;;13.08;64.94;98217.67;105445;1251;96588;-71
2024/03/04 16:09:30;;;;;;;12.50;7.40;;;;;;;13.04;64.97;98219.31;105699;1254;96602;-71
2024/03/04 16:12:06;;;;;;;17.20;8.20;;;;;;;13.00;64.97;98218.05;105722;1257;109842;-73
2024/03/04 16:14:34;;;;;;;35.50;16.10;;;;;;;12.95;64.88;98218.74;105584;1256;97539;-69
2024/03/04 16:17:01;;;;;;;53.40;21.70;;;;;;;12.89;64.80;98223.02;105328;1257;107523;-72
2024/03/04 16:19:29;;;;;;;48.30;20.80;;;;;;;12.87;64.85;98221.44;105855;1251;96591;-72
2024/03/04 16:21:57;;;;;;;35.40;17.20;;;;;;;12.83;64.91;98222.00;105820;1254;96593;-73
2024/03/04 16:24:25;;;;;;;27.50;11.50;;;;;;;12.77;64.94;98225.77;105554;1253;109076;-74
2024/03/04 16:26:55;;;;;;;20.50;9.70;;;;;;;12.76;64.90;98227.99;105492;1251;97308;-74
2024/03/04 16:29:24;;;;;;;17.30;9.00;;;;;;;12.73;64.90;98226.16;105591;1254;107701;-75
2024/03/04 16:32:01;;;;;;;14.30;8.70;;;;;;;12.65;64.89;98226.92;105636;1256;96581;-74
2024/03/04 16:34:33;;;;;;;18.50;9.50;;;;;;;12.58;64.89;98226.70;105745;1265;96657;-73
2024/03/04 16:37:03;;;;;;;16.60;9.10;;;;;;;12.52;64.80;98224.38;105639;1254;109523;-83
2024/03/04 16:39:32;;;;;;;19.40;10.40;;;;;;;12.47;64.77;98226.79;106105;1251;96594;-75
2024/03/04 16:42:00;;;;;;;38.00;18.70;;;;;;;12.43;64.77;98224.48;105497;1263;107811;-76
2024/03/04 16:44:28;;;;;;;50.40;23.20;;;;;;;12.40;64.91;98223.61;105784;1251;96702;-73
2024/03/04 16:46:55;;;;;;;45.50;20.40;;;;;;;12.36;64.78;98226.63;105826;1251;96623;-77
2024/03/04 16:49:24;;;;;;;34.80;16.40;;;;;;;12.35;64.80;98229.48;105711;1251;109459;-77
2024/03/04 16:51:52;;;;;;;49.50;22.60;;;;;;;12.35;64.73;98228.28;105822;1254;96618;-77
2024/03/04 16:54:20;;;;;;;43.10;18.50;;;;;;;12.32;64.62;98227.46;105680;1251;107294;-76
2024/03/04 16:56:48;;;;;;;47.20;22.10;;;;;;;12.30;64.67;98227.16;105703;1254;97822;-75
2024/03/04 16:59:16;;;;;;;41.00;19.70;;;;;;;12.29;64.68;98231.45;105707;1254;96567;-77
2024/03/04 17:01:44;;;;;;;33.10;17.40;;;;;;;12.27;64.54;98230.95;106482;1254;109492;-77
2024/03/04 17:04:16;;;;;;;;;;;;;;;12.25;64.64;98233.84;108974;1250;95466;-77
2024/03/04 17:06:44;;;;;;;20.90;11.80;;;;;;;12.18;64.59;98230.71;105851;1251;108369;-77
2024/03/04 17:09:12;;;;;;;25.60;13.80;;;;;;;12.12;64.67;98232.38;105989;1253;96584;-77
2024/03/04 17:11:40;;;;;;;30.90;16.60;;;;;;;12.05;64.77;98231.91;105898;1254;96672;-77
2024/03/04 17:14:08;;;;;;;30.40;16.90;;;;;;;11.98;64.75;98233.65;105661;1254;109974;-78
2024/03/04 17:16:41;;;;;;;34.90;21.30;;;;;;;11.89;64.79;98234.39;105908;1254;96545;-77
2024/03/04 17:19:10;;;;;;;52.30;25.60;;;;;;;11.85;64.87;98233.17;108887;1251;106725;-78
2024/03/04 17:21:42;;;;;;;37.40;22.10;;;;;;;11.81;64.94;98230.42;108895;1251;94491;-78
2024/03/04 17:24:10;;;;;;;45.40;23.00;;;;;;;11.76;64.84;98231.86;108907;1250;94539;-78
2024/03/04 17:26:42;;;;;;;35.70;21.40;;;;;;;11.73;65.06;98233.59;108918;1251;109886;-75
2024/03/04 17:29:10;;;;;;;;;;;;;;;11.70;64.99;98235.98;108238;1253;95757;-76
2024/03/04 17:31:38;;;;;;;44.60;23.70;;;;;;;11.65;65.02;98235.02;105820;1254;107408;-77
2024/03/04 17:34:07;;;;;;;40.80;22.80;;;;;;;11.62;65.14;98232.95;105552;1254;96603;-77
2024/03/04 17:36:39;;;;;;;39.70;20.90;;;;;;;11.59;65.12;98235.34;105486;1251;97124;-77
2024/03/04 17:39:08;;;;;;;38.50;20.90;;;;;;;11.54;65.06;98239.73;105798;1253;111354;-77
2024/03/04 17:41:36;;;;;;;58.30;29.70;;;;;;;11.45;65.08;98239.95;105780;1251;96680;-77
2024/03/04 17:44:04;;;;;;;76.20;35.30;;;;;;;11.41;65.23;98245.98;105866;1251;107578;-78
2024/03/04 17:46:33;;;;;;;72.90;32.30;;;;;;;11.39;65.31;98251.70;105688;1251;96664;-78
2024/03/04 17:49:01;;;;;;;65.90;32.00;;;;;;;11.37;65.20;98266.21;106007;1254;97067;-78
2024/03/04 17:51:29;;;;;;;75.60;42.90;;;;;;;11.34;65.42;98275.70;106106;1251;110410;-79
2024/03/04 17:53:56;;;;;;;64.60;34.90;;;;;;;11.32;65.41;98287.44;105892;1253;96669;-78
2024/03/04 17:56:24;;;;;;;61.30;36.70;;;;;;;11.27;65.23;98292.80;105622;1251;107059;-77
2024/03/04 17:58:52;;;;;;;132.00;56.50;;;;;;;11.25;65.43;98285.05;105666;1254;96705;-78
2024/03/04 18:01:20;;;;;;;191.40;68.00;;;;;;;11.23;65.58;98286.42;106000;1254;96565;-77
2024/03/04 18:03:48;;;;;;;98.20;47.60;;;;;;;11.23;65.49;98297.10;105723;1254;109621;-77
2024/03/04 18:06:16;;;;;;;92.50;44.90;;;;;;;11.22;65.49;98304.41;105931;1254;97217;-77
2024/03/04 18:08:44;;;;;;;77.70;34.20;;;;;;;11.21;65.46;98306.69;105608;1265;107818;-77
2024/03/04 18:11:12;;;;;;;57.90;27.20;;;;;;;11.17;65.55;98299.70;105541;1254;96532;-77
2024/03/04 18:13:41;;;;;;;41.30;23.00;;;;;;;11.12;65.28;98286.11;105711;1254;96539;-77
2024/03/04 18:16:09;;;;;;;37.30;20.50;;;;;;;11.06;65.56;98291.80;105558;1250;109440;-77
2024/03/04 18:18:38;;;;;;;45.60;23.50;;;;;;;10.99;65.67;98297.74;105712;1254;96606;-79
2024/03/04 18:21:06;;;;;;;47.60;24.70;;;;;;;10.85;66.03;98299.30;105728;1255;107671;-78
2024/03/04 18:23:33;;;;;;;41.30;23.40;;;;;;;10.69;66.10;98299.94;105802;1253;96578;-76
2024/03/04 18:26:01;;;;;;;41.80;23.00;;;;;;;10.52;66.11;98304.00;105723;1253;96496;-77
2024/03/04 18:28:29;;;;;;;43.60;24.50;;;;;;;10.35;66.23;98308.82;105487;1254;109918;-78
2024/03/04 18:31:01;;;;;;;42.50;23.40;;;;;;;10.19;66.45;98306.02;105667;1251;96737;-78
2024/03/04 18:33:29;;;;;;;48.30;23.40;;;;;;;10.05;66.40;98307.00;105791;1265;106623;-77
2024/03/04 18:35:57;;;;;;;41.60;23.10;;;;;;;9.96;66.48;98303.32;105953;1251;96616;-77
2024/03/04 18:38:26;;;;;;;43.70;24.10;;;;;;;9.87;66.79;98302.81;105941;1250;96586;-76
2024/03/04 18:40:54;;;;;;;43.00;23.10;;;;;;;9.81;66.75;98300.27;105654;1254;109862;-77
2024/03/04 18:43:22;;;;;;;43.30;22.00;;;;;;;9.76;66.98;98299.06;105431;1251;96613;-77
2024/03/04 18:45:51;;;;;;;40.90;22.10;;;;;;;9.69;67.04;98302.88;105813;1254;107720;-77
2024/03/04 18:48:19;;;;;;;46.50;22.60;;;;;;;9.63;67.18;98304.02;105697;1251;96615;-77
2024/03/04 18:50:46;;;;;;;46.20;25.80;;;;;;;9.56;67.31;98307.42;105963;1251;96708;-77
2024/03/04 18:53:14;;;;;;;49.10;25.50;;;;;;;9.49;67.45;98301.06;105788;1253;108915;-77
2024/03/04 18:55:42;;;;;;;45.70;25.50;;;;;;;9.43;67.64;98305.48;105668;1251;96594;-77
2024/03/04 18:58:10;;;;;;;42.60;22.90;;;;;;;9.37;67.77;98302.58;105736;1254;107627;-77
2024/03/04 19:00:38;;;;;;;45.70;23.50;;;;;;;9.29;68.08;98304.11;105767;1251;96581;-78
2024/03/04 19:03:06;;;;;;;44.00;23.20;;;;;;;9.20;68.11;98306.88;106009;1254;96599;-78
2024/03/04 19:05:34;;;;;;;41.40;23.80;;;;;;;9.15;68.01;98308.59;105741;1253;108164;-77
2024/03/04 19:08:03;;;;;;;42.80;22.60;;;;;;;9.09;68.20;98314.33;105793;1250;96586;-77
2024/03/04 19:10:31;;;;;;;42.50;22.60;;;;;;;9.05;68.12;98321.20;105831;1254;107598;-77
2024/03/04 19:12:59;;;;;;;42.50;22.60;;;;;;;9.03;68.31;98319.58;105806;1251;96503;-78
2024/03/04 19:15:27;;;;;;;37.50;21.40;;;;;;;9.02;68.32;98317.91;105554;1253;96498;-77
2024/03/04 19:17:55;;;;;;;40.20;22.00;;;;;;;9.00;68.52;98314.15;105533;1251;109905;-77
2024/03/04 19:20:23;;;;;;;39.50;22.60;;;;;;;9.01;68.73;98320.10;105690;1251;97893;-78
2024/03/04 19:22:51;;;;;;;37.30;20.30;;;;;;;9.01;68.75;98328.17;105410;1254;107678;-78
2024/03/04 19:25:19;;;;;;;50.40;24.40;;;;;;;9.01;68.95;98332.79;105647;1257;96615;-76
2024/03/04 19:27:47;;;;;;;77.90;31.60;;;;;;;9.01;68.88;98339.54;105564;1255;97412;-78
2024/03/04 19:30:15;;;;;;;78.40;32.80;;;;;;;9.01;68.94;98339.57;105654;1251;109667;-77
2024/03/04 19:32:43;;;;;;;68.80;29.70;;;;;;;8.98;68.76;98343.81;105641;1254;96580;-76
2024/03/04 19:35:11;;;;;;;57.90;28.10;;;;;;;8.94;68.83;98341.80;105904;1250;107446;-76
2024/03/04 19:37:39;;;;;;;52.80;25.90;;;;;;;8.92;68.99;98339.31;105648;1254;96600;-76
2024/03/04 19:40:10;;;;;;;49.80;24.90;;;;;;;8.92;68.82;98342.52;105491;1255;96600;-76
2024/03/04 19:42:38;;;;;;;55.90;26.90;;;;;;;8.90;68.94;98335.08;105737;1254;110005;-76
2024/03/04 19:45:07;;;;;;;54.00;27.20;;;;;;;8.87;68.86;98330.39;105703;1254;97519;-76
2024/03/04 19:47:35;;;;;;;51.30;25.40;;;;;;;8.82;68.84;98330.23;105707;1257;110024;-75
2024/03/04 19:50:04;;;;;;;45.30;23.20;;;;;;;8.79;68.96;98331.64;105668;1254;96589;-76
2024/03/04 19:52:32;;;;;;;41.50;23.00;;;;;;;8.77;68.96;98326.84;105775;1255;97668;-75
2024/03/04 19:55:00;;;;;;;43.10;22.70;;;;;;;8.76;68.92;98325.71;105802;1254;109821;-77
2024/03/04 19:57:28;;;;;;;43.30;22.30;;;;;;;8.74;69.05;98325.14;105684;1253;96578;-76
2024/03/04 20:00:09;;;;;;;46.90;23.70;;;;;;;8.72;69.06;98321.58;105615;1254;108084;-77
2024/03/04 20:02:37;;;;;;;41.10;22.10;;;;;;;8.70;69.15;98322.25;105824;1250;98193;-77
2024/03/04 20:05:06;;;;;;;48.50;23.80;;;;;;;8.67;69.35;98312.75;105862;1252;96677;-75
2024/03/04 20:07:35;;;;;;;45.60;24.00;;;;;;;8.62;69.64;98314.02;105665;1257;109407;-76
2024/03/04 20:10:03;;;;;;;42.80;22.70;;;;;;;8.57;69.68;98310.70;105566;1253;96721;-76
2024/03/04 20:12:33;;;;;;;40.40;21.80;;;;;;;8.57;69.81;98311.73;105887;1254;108713;-80
2024/03/04 20:15:01;;;;;;;40.30;21.90;;;;;;;8.59;69.92;98311.27;105842;1253;96594;-78
2024/03/04 20:17:32;;;;;;;44.50;23.60;;;;;;;8.59;69.71;98310.01;105728;1251;96577;-78
2024/03/04 20:20:00;;;;;;;41.30;22.00;;;;;;;8.55;69.87;98308.23;105514;1257;109883;-80
2024/03/04 20:22:30;;;;;;;41.80;23.00;;;;;;;8.52;69.88;98305.80;105655;1267;97108;-79
2024/03/04 20:25:00;;;;;;;39.50;21.70;;;;;;;8.48;69.97;98304.46;105654;1253;107069;-79
2024/03/04 20:27:28;;;;;;;38.50;20.20;;;;;;;8.46;70.12;98303.17;105690;1251;97582;-81
2024/03/04 20:29:56;;;;;;;46.90;23.30;;;;;;;8.45;70.11;98302.60;105880;1256;96579;-79
2024/03/04 20:32:24;;;;;;;42.10;21.50;;;;;;;8.44;70.12;98300.52;105901;1254;109939;-78
2024/03/04 20:34:52;;;;;;;41.70;21.30;;;;;;;8.42;70.22;98300.48;105771;1250;97910;-78
2024/03/04 20:37:20;;;;;;;43.20;22.60;;;;;;;8.39;70.10;98299.14;105775;1253;107670;-79
2024/03/04 20:39:47;;;;;;;41.10;23.00;;;;;;;8.37;70.19;98298.97;105685;1251;97378;-80
2024/03/04 20:42:16;;;;;;;41.20;22.10;;;;;;;8.32;70.23;98295.04;105917;1251;96497;-77
2024/03/04 20:44:44;;;;;;;40.80;21.80;;;;;;;8.30;70.31;98292.21;105912;1252;109921;-77
2024/03/04 20:47:11;;;;;;;41.90;21.80;;;;;;;8.29;70.30;98289.44;105795;1254;96639;-77
2024/03/04 20:49:42;;;;;;;43.40;23.00;;;;;;;8.28;70.38;98289.16;105552;1263;107678;-77
2024/03/04 20:52:11;;;;;;;38.20;20.60;;;;;;;8.26;70.50;98291.43;105508;1251;96554;-78
2024/03/04 20:54:38;;;;;;;45.50;23.60;;;;;;;8.24;70.24;98293.38;105821;1254;96679;-77
2024/03/04 20:57:06;;;;;;;41.20;22.10;;;;;;;8.22;70.54;98288.23;105892;1254;110081;-78
2024/03/04 20:59:34;;;;;;;47.60;23.90;;;;;;;8.20;70.52;98290.64;105923;1266;97847;-76
2024/03/04 21:02:02;;;;;;;47.80;24.00;;;;;;;8.18;70.60;98286.70;105790;1251;106748;-77
2024/03/04 21:04:30;;;;;;;46.10;23.50;;;;;;;8.18;70.45;98281.84;106041;1253;96654;-77
2024/03/04 21:06:58;;;;;;;51.90;25.80;;;;;;;8.15;70.59;98278.30;105617;1254;97549;-78
2024/03/04 21:09:26;;;;;;;47.90;24.70;;;;;;;8.13;70.53;98272.69;105713;1250;111247;-77
2024/03/04 21:11:54;;;;;;;50.60;26.00;;;;;;;8.11;70.61;98273.35;105481;1254;97512;-77
2024/03/04 21:14:21;;;;;;;47.60;24.00;;;;;;;8.07;70.86;98275.55;105609;1254;107757;-77
2024/03/04 21:16:49;;;;;;;48.60;25.70;;;;;;;8.07;70.81;98274.16;105487;1256;96583;-77
2024/03/04 21:19:17;;;;;;;49.60;25.50;;;;;;;8.07;70.79;98276.98;105844;1254;96586;-76
2024/03/04 21:21:45;;;;;;;47.90;24.30;;;;;;;8.05;70.84;98279.59;105856;1250;108838;-77
2024/03/04 21:24:13;;;;;;;49.10;24.60;;;;;;;8.05;70.90;98279.80;105919;1253;97899;-76
2024/03/04 21:26:41;;;;;;;52.20;25.90;;;;;;;8.03;70.87;98278.13;105698;1251;107529;-76
2024/03/04 21:29:09;;;;;;;53.70;25.60;;;;;;;8.02;70.92;98278.25;105767;1253;97268;-76
2024/03/04 21:31:37;;;;;;;52.70;25.30;;;;;;;8.01;70.94;98275.79;105618;1253;98133;-79
2024/03/04 21:34:04;;;;;;;52.10;26.80;;;;;;;8.01;71.01;98273.55;105602;1251;109982;-78
2024/03/04 21:36:32;;;;;;;50.50;24.30;;;;;;;8.02;70.92;98276.13;105710;1251;96609;-78
2024/03/04 21:39:00;;;;;;;50.60;25.00;;;;;;;8.01;71.19;98278.32;105944;1251;109110;-77
2024/03/04 21:41:28;;;;;;;56.20;26.00;;;;;;;8.02;71.21;98276.12;105533;1251;97271;-78
2024/03/04 21:43:56;;;;;;;63.90;28.30;;;;;;;8.03;70.84;98275.51;105331;1251;96574;-78
2024/03/04 21:46:24;;;;;;;55.50;27.70;;;;;;;8.01;70.83;98277.29;105652;1251;109949;-77
2024/03/04 21:48:52;;;;;;;61.70;29.50;;;;;;;7.98;70.84;98283.86;105644;1254;96531;-77
2024/03/04 21:51:21;;;;;;;54.10;27.80;;;;;;;7.97;71.16;98280.56;105711;1254;106958;-77
2024/03/04 21:53:48;;;;;;;55.50;28.50;;;;;;;7.96;71.07;98277.40;105735;1254;96584;-77
2024/03/04 21:56:16;;;;;;;52.10;26.00;;;;;;;7.95;71.45;98272.42;105381;1257;96651;-77
2024/03/04 21:58:44;;;;;;;51.50;25.70;;;;;;;7.96;71.35;98274.25;105637;1254;109343;-78
2024/03/04 22:01:22;;;;;;;48.90;23.90;;;;;;;7.97;71.27;98279.51;105685;1251;96612;-78
2024/03/04 22:03:50;;;;;;;54.60;27.40;;;;;;;7.95;71.45;98285.80;105565;1257;107196;-76
2024/03/04 22:06:22;;;;;;;59.60;27.40;;;;;;;7.95;71.47;98287.77;105683;1254;96626;-78
2024/03/04 22:08:50;;;;;;;59.70;27.80;;;;;;;7.94;71.64;98285.36;105629;1251;96584;-76
2024/03/04 22:11:18;;;;;;;54.70;26.80;;;;;;;7.94;71.53;98293.33;105502;1254;109865;-78
2024/03/04 22:13:46;;;;;;;52.30;25.90;;;;;;;7.94;71.66;98289.45;105600;1254;97941;-76
2024/03/04 22:16:16;;;;;;;60.60;29.40;;;;;;;7.92;71.56;98295.08;105398;1253;106626;-77
2024/03/04 22:18:44;;;;;;;55.60;26.60;;;;;;;7.89;71.43;98296.48;105523;1257;97374;-77
2024/03/04 22:21:12;;;;;;;60.10;29.60;;;;;;;7.85;71.40;98292.34;105851;1251;96415;-79
2024/03/04 22:23:40;;;;;;;58.30;26.90;;;;;;;7.83;71.55;98292.50;105672;1254;108317;-78
2024/03/04 22:26:08;;;;;;;54.20;27.00;;;;;;;7.80;71.67;98292.74;105482;1257;96642;-76
2024/03/04 22:28:36;;;;;;;58.00;28.20;;;;;;;7.79;71.65;98286.13;105302;1257;107155;-77